Daytona Beach, Florida
Current Conditions -  °F | °C
As of 7:53 PM on Wednesday 26 Nov 2014 (Local Time) from KDAB Reporting Station
Few Clouds Few Clouds  
Wind Chill: 53°   Ceiling: Unl
Heat Index: 53°   Visibility: 10mi
Dew Point: 48°   Wind: 3mph
Humidity: 83%   Direction: 270°W
Pressure: 30.19"   Gusts: NA
Location:  29.2°N, 81.04°W
Report Text: KDAB 270053Z 27003KT 10SM FEW200 12/09 A3019 RMK AO2 SLP223 T01170089
Loading
Personal Weather Stations






























Interactive Weather Map New forecast layout! Learn more

10-Day Weather Forecast

Advertisements
Track Severe Weather on mobile